Bowerbank, Maine
Current Conditions -  °F | °C
As of 10:53 PM on Thursday 18 Dec 2014 (Local Time) from KBGR Reporting Station
Scattered Clouds Scattered Clouds  
Wind Chill: 16°   Ceiling: Unl
Heat Index: 29°   Visibility: 10mi
Dew Point: 23°   Wind: 18mph
Humidity: 78%   Direction: 320°NW
Pressure: 29.74"   Gusts: NA
Location:  45.2129°N, 69.1615°W
Report Text: KBGR 190353Z 32016KT 10SM SCT040 M02/M05 A2974 RMK AO2 SLP075 T10171050
Loading
Personal Weather Stations






























Interactive Weather Map New forecast layout! Learn more

10-Day Weather Forecast

Advertisements
Track Severe Weather on mobile